sensor_id;sensor_type;location;lat;lon;timestamp;P1;durP1;ratioP1;P2;durP2;ratioP2
66741;SDS011;53654;54.152;19.432;2023-03-29T00:00:55;28.10;;;20.10;;
66741;SDS011;53654;54.152;19.432;2023-03-29T00:03:27;26.40;;;19.40;;
66741;SDS011;53654;54.152;19.432;2023-03-29T00:06:00;23.10;;;17.30;;
66741;SDS011;53654;54.152;19.432;2023-03-29T00:08:30;19.50;;;15.50;;
66741;SDS011;53654;54.152;19.432;2023-03-29T00:11:00;22.30;;;15.50;;
66741;SDS011;53654;54.152;19.432;2023-03-29T00:13:29;25.00;;;17.60;;
66741;SDS011;53654;54.152;19.432;2023-03-29T00:15:57;24.30;;;18.30;;
66741;SDS011;53654;54.152;19.432;2023-03-29T00:18:25;30.10;;;23.00;;
66741;SDS011;53654;54.152;19.432;2023-03-29T00:20:56;31.40;;;23.10;;
66741;SDS011;53654;54.152;19.432;2023-03-29T00:23:26;30.10;;;22.90;;
66741;SDS011;53654;54.152;19.432;2023-03-29T00:25:55;29.70;;;22.00;;
66741;SDS011;53654;54.152;19.432;2023-03-29T00:28:24;26.20;;;20.10;;
66741;SDS011;53654;54.152;19.432;2023-03-29T00:31:02;24.40;;;19.80;;
66741;SDS011;53654;54.152;19.432;2023-03-29T00:33:32;22.70;;;18.40;;
66741;SDS011;53654;54.152;19.432;2023-03-29T00:36:00;25.80;;;18.40;;
66741;SDS011;53654;54.152;19.432;2023-03-29T00:38:29;24.90;;;18.40;;
66741;SDS011;53654;54.152;19.432;2023-03-29T00:40:58;22.50;;;16.30;;
66741;SDS011;53654;54.152;19.432;2023-03-29T00:43:26;20.80;;;15.40;;
66741;SDS011;53654;54.152;19.432;2023-03-29T00:45:54;19.30;;;13.70;;
66741;SDS011;53654;54.152;19.432;2023-03-29T00:48:24;20.40;;;15.10;;
66741;SDS011;53654;54.152;19.432;2023-03-29T00:50:56;19.60;;;15.20;;
66741;SDS011;53654;54.152;19.432;2023-03-29T00:53:35;20.00;;;15.70;;
66741;SDS011;53654;54.152;19.432;2023-03-29T00:56:31;20.30;;;15.00;;
66741;SDS011;53654;54.152;19.432;2023-03-29T00:59:12;20.60;;;14.50;;
66741;SDS011;53654;54.152;19.432;2023-03-29T01:05:10;20.70;;;14.60;;
66741;SDS011;53654;54.152;19.432;2023-03-29T01:07:30;21.30;;;14.60;;
66741;SDS011;53654;54.152;19.432;2023-03-29T01:10:11;20.50;;;14.30;;
66741;SDS011;53654;54.152;19.432;2023-03-29T01:12:48;19.10;;;13.90;;
66741;SDS011;53654;54.152;19.432;2023-03-29T01:15:22;21.30;;;14.90;;
66741;SDS011;53654;54.152;19.432;2023-03-29T01:17:53;19.20;;;14.10;;
66741;SDS011;53654;54.152;19.432;2023-03-29T01:28:50;15.30;;;11.90;;
66741;SDS011;53654;54.152;19.432;2023-03-29T01:31:27;16.10;;;12.10;;
66741;SDS011;53654;54.152;19.432;2023-03-29T01:34:00;12.80;;;9.90;;
66741;SDS011;53654;54.152;19.432;2023-03-29T01:36:38;14.00;;;10.40;;
66741;SDS011;53654;54.152;19.432;2023-03-29T01:39:09;14.70;;;10.80;;
66741;SDS011;53654;54.152;19.432;2023-03-29T01:41:41;13.10;;;10.50;;
66741;SDS011;53654;54.152;19.432;2023-03-29T01:44:20;13.10;;;9.80;;
66741;SDS011;53654;54.152;19.432;2023-03-29T01:47:11;12.60;;;9.50;;
66741;SDS011;53654;54.152;19.432;2023-03-29T01:49:58;14.40;;;10.90;;
66741;SDS011;53654;54.152;19.432;2023-03-29T01:52:37;14.10;;;10.00;;
66741;SDS011;53654;54.152;19.432;2023-03-29T01:55:14;12.50;;;10.10;;
66741;SDS011;53654;54.152;19.432;2023-03-29T01:57:48;14.30;;;10.30;;
66741;SDS011;53654;54.152;19.432;2023-03-29T02:00:20;14.90;;;10.30;;
66741;SDS011;53654;54.152;19.432;2023-03-29T02:02:52;13.80;;;10.60;;
66741;SDS011;53654;54.152;19.432;2023-03-29T02:05:26;12.30;;;10.20;;
66741;SDS011;53654;54.152;19.432;2023-03-29T02:07:58;13.20;;;10.70;;
66741;SDS011;53654;54.152;19.432;2023-03-29T02:10:28;15.60;;;11.10;;
66741;SDS011;53654;54.152;19.432;2023-03-29T02:12:57;13.00;;;10.60;;
66741;SDS011;53654;54.152;19.432;2023-03-29T02:15:25;13.60;;;10.60;;
66741;SDS011;53654;54.152;19.432;2023-03-29T02:17:55;14.60;;;10.60;;
66741;SDS011;53654;54.152;19.432;2023-03-29T02:20:42;12.80;;;9.70;;
66741;SDS011;53654;54.152;19.432;2023-03-29T02:23:20;14.20;;;9.70;;
66741;SDS011;53654;54.152;19.432;2023-03-29T02:26:00;13.10;;;9.60;;
66741;SDS011;53654;54.152;19.432;2023-03-29T02:28:30;15.00;;;10.80;;
66741;SDS011;53654;54.152;19.432;2023-03-29T02:31:11;15.80;;;10.40;;
66741;SDS011;53654;54.152;19.432;2023-03-29T02:33:58;12.20;;;9.10;;
66741;SDS011;53654;54.152;19.432;2023-03-29T02:36:43;12.30;;;9.40;;
66741;SDS011;53654;54.152;19.432;2023-03-29T02:39:14;13.40;;;9.90;;
66741;SDS011;53654;54.152;19.432;2023-03-29T02:41:45;11.40;;;9.10;;
66741;SDS011;53654;54.152;19.432;2023-03-29T02:44:17;12.60;;;9.60;;
66741;SDS011;53654;54.152;19.432;2023-03-29T02:46:49;12.60;;;9.10;;
66741;SDS011;53654;54.152;19.432;2023-03-29T02:49:19;11.60;;;8.90;;
66741;SDS011;53654;54.152;19.432;2023-03-29T02:51:48;12.40;;;9.70;;
66741;SDS011;53654;54.152;19.432;2023-03-29T02:54:21;12.80;;;9.60;;
66741;SDS011;53654;54.152;19.432;2023-03-29T02:56:57;14.00;;;9.70;;
66741;SDS011;53654;54.152;19.432;2023-03-29T02:59:27;12.30;;;9.40;;
66741;SDS011;53654;54.152;19.432;2023-03-29T03:01:56;15.00;;;11.50;;
66741;SDS011;53654;54.152;19.432;2023-03-29T03:04:25;15.10;;;11.70;;
66741;SDS011;53654;54.152;19.432;2023-03-29T03:06:53;14.20;;;10.80;;
66741;SDS011;53654;54.152;19.432;2023-03-29T03:09:22;15.80;;;11.50;;
66741;SDS011;53654;54.152;19.432;2023-03-29T03:11:52;14.00;;;10.80;;
66741;SDS011;53654;54.152;19.432;2023-03-29T03:14:20;14.10;;;10.10;;
66741;SDS011;53654;54.152;19.432;2023-03-29T03:16:50;12.20;;;10.00;;
66741;SDS011;53654;54.152;19.432;2023-03-29T03:19:20;13.00;;;9.30;;
66741;SDS011;53654;54.152;19.432;2023-03-29T03:21:49;14.90;;;11.00;;
66741;SDS011;53654;54.152;19.432;2023-03-29T03:24:17;13.00;;;10.10;;
66741;SDS011;53654;54.152;19.432;2023-03-29T03:26:46;16.40;;;10.90;;
66741;SDS011;53654;54.152;19.432;2023-03-29T03:29:14;11.60;;;9.20;;
66741;SDS011;53654;54.152;19.432;2023-03-29T03:32:01;12.60;;;9.00;;
66741;SDS011;53654;54.152;19.432;2023-03-29T03:34:51;12.70;;;9.40;;
66741;SDS011;53654;54.152;19.432;2023-03-29T03:37:21;13.30;;;9.50;;
66741;SDS011;53654;54.152;19.432;2023-03-29T03:39:50;12.60;;;9.20;;
66741;SDS011;53654;54.152;19.432;2023-03-29T03:42:18;14.30;;;9.80;;
66741;SDS011;53654;54.152;19.432;2023-03-29T03:44:47;11.40;;;9.20;;
66741;SDS011;53654;54.152;19.432;2023-03-29T03:47:34;12.70;;;9.20;;
66741;SDS011;53654;54.152;19.432;2023-03-29T03:50:16;13.80;;;9.00;;
66741;SDS011;53654;54.152;19.432;2023-03-29T03:52:45;11.80;;;8.70;;
66741;SDS011;53654;54.152;19.432;2023-03-29T03:55:14;14.40;;;9.70;;
66741;SDS011;53654;54.152;19.432;2023-03-29T03:58:04;14.80;;;9.70;;
66741;SDS011;53654;54.152;19.432;2023-03-29T04:00:34;13.30;;;9.10;;
66741;SDS011;53654;54.152;19.432;2023-03-29T04:03:10;15.40;;;9.80;;
66741;SDS011;53654;54.152;19.432;2023-03-29T04:05:40;16.80;;;10.70;;
66741;SDS011;53654;54.152;19.432;2023-03-29T04:08:10;16.70;;;10.50;;
66741;SDS011;53654;54.152;19.432;2023-03-29T04:11:15;16.10;;;10.40;;
66741;SDS011;53654;54.152;19.432;2023-03-29T04:13:43;16.90;;;10.60;;
66741;SDS011;53654;54.152;19.432;2023-03-29T04:16:26;18.00;;;11.10;;
66741;SDS011;53654;54.152;19.432;2023-03-29T04:18:56;21.90;;;14.20;;
66741;SDS011;53654;54.152;19.432;2023-03-29T04:21:24;17.50;;;11.00;;
66741;SDS011;53654;54.152;19.432;2023-03-29T04:23:52;18.10;;;11.20;;
66741;SDS011;53654;54.152;19.432;2023-03-29T04:26:20;16.00;;;10.90;;
66741;SDS011;53654;54.152;19.432;2023-03-29T04:28:56;18.00;;;12.60;;
66741;SDS011;53654;54.152;19.432;2023-03-29T04:31:36;22.90;;;16.90;;
66741;SDS011;53654;54.152;19.432;2023-03-29T04:34:14;25.40;;;19.40;;
66741;SDS011;53654;54.152;19.432;2023-03-29T04:36:43;32.50;;;27.60;;
66741;SDS011;53654;54.152;19.432;2023-03-29T04:39:16;40.70;;;32.90;;
66741;SDS011;53654;54.152;19.432;2023-03-29T04:41:45;41.00;;;33.40;;
66741;SDS011;53654;54.152;19.432;2023-03-29T04:44:24;44.60;;;34.90;;
66741;SDS011;53654;54.152;19.432;2023-03-29T04:46:53;52.10;;;40.50;;
66741;SDS011;53654;54.152;19.432;2023-03-29T04:49:41;60.40;;;42.60;;
66741;SDS011;53654;54.152;19.432;2023-03-29T04:52:13;56.30;;;41.10;;
66741;SDS011;53654;54.152;19.432;2023-03-29T04:54:41;60.90;;;42.60;;
66741;SDS011;53654;54.152;19.432;2023-03-29T04:57:19;64.00;;;43.60;;
66741;SDS011;53654;54.152;19.432;2023-03-29T05:00:02;62.50;;;42.90;;
66741;SDS011;53654;54.152;19.432;2023-03-29T05:03:00;66.10;;;42.10;;
66741;SDS011;53654;54.152;19.432;2023-03-29T05:05:30;68.90;;;44.50;;
66741;SDS011;53654;54.152;19.432;2023-03-29T05:08:00;70.60;;;43.70;;
66741;SDS011;53654;54.152;19.432;2023-03-29T05:10:40;68.70;;;44.60;;
66741;SDS011;53654;54.152;19.432;2023-03-29T05:13:10;64.80;;;43.30;;
66741;SDS011;53654;54.152;19.432;2023-03-29T05:15:40;65.60;;;43.90;;
66741;SDS011;53654;54.152;19.432;2023-03-29T05:18:08;61.00;;;41.50;;
66741;SDS011;53654;54.152;19.432;2023-03-29T05:20:37;60.70;;;42.40;;
66741;SDS011;53654;54.152;19.432;2023-03-29T05:23:09;68.30;;;47.50;;
66741;SDS011;53654;54.152;19.432;2023-03-29T05:26:00;65.80;;;46.30;;
66741;SDS011;53654;54.152;19.432;2023-03-29T05:28:28;63.70;;;43.40;;
66741;SDS011;53654;54.152;19.432;2023-03-29T05:31:00;58.30;;;41.10;;
66741;SDS011;53654;54.152;19.432;2023-03-29T05:33:33;62.50;;;42.50;;
66741;SDS011;53654;54.152;19.432;2023-03-29T05:36:07;58.80;;;42.40;;
66741;SDS011;53654;54.152;19.432;2023-03-29T05:38:44;49.10;;;37.60;;
66741;SDS011;53654;54.152;19.432;2023-03-29T05:41:13;42.20;;;33.40;;
66741;SDS011;53654;54.152;19.432;2023-03-29T05:44:00;39.40;;;31.20;;
66741;SDS011;53654;54.152;19.432;2023-03-29T05:46:29;31.60;;;25.60;;
66741;SDS011;53654;54.152;19.432;2023-03-29T05:48:58;34.10;;;27.40;;
66741;SDS011;53654;54.152;19.432;2023-03-29T05:51:40;31.50;;;25.20;;
66741;SDS011;53654;54.152;19.432;2023-03-29T05:54:09;27.20;;;21.20;;
66741;SDS011;53654;54.152;19.432;2023-03-29T05:56:38;25.90;;;21.80;;
66741;SDS011;53654;54.152;19.432;2023-03-29T05:59:06;29.20;;;25.70;;
66741;SDS011;53654;54.152;19.432;2023-03-29T06:01:35;31.50;;;26.80;;
66741;SDS011;53654;54.152;19.432;2023-03-29T06:04:06;25.20;;;22.50;;
66741;SDS011;53654;54.152;19.432;2023-03-29T06:06:49;28.30;;;23.50;;
66741;SDS011;53654;54.152;19.432;2023-03-29T06:09:19;33.90;;;26.50;;
66741;SDS011;53654;54.152;19.432;2023-03-29T06:11:54;24.40;;;19.50;;
66741;SDS011;53654;54.152;19.432;2023-03-29T06:14:29;19.50;;;15.80;;
66741;SDS011;53654;54.152;19.432;2023-03-29T06:17:06;14.10;;;11.40;;
66741;SDS011;53654;54.152;19.432;2023-03-29T06:19:35;11.00;;;8.70;;
66741;SDS011;53654;54.152;19.432;2023-03-29T06:22:04;10.40;;;8.70;;
66741;SDS011;53654;54.152;19.432;2023-03-29T06:24:33;10.50;;;8.80;;
66741;SDS011;53654;54.152;19.432;2023-03-29T06:27:05;8.00;;;6.50;;
66741;SDS011;53654;54.152;19.432;2023-03-29T06:29:33;8.30;;;6.30;;
66741;SDS011;53654;54.152;19.432;2023-03-29T06:32:01;8.30;;;6.00;;
66741;SDS011;53654;54.152;19.432;2023-03-29T06:35:02;9.00;;;6.60;;
66741;SDS011;53654;54.152;19.432;2023-03-29T06:37:45;8.50;;;6.30;;
66741;SDS011;53654;54.152;19.432;2023-03-29T06:40:27;5.90;;;4.50;;
66741;SDS011;53654;54.152;19.432;2023-03-29T06:42:58;8.70;;;7.10;;
66741;SDS011;53654;54.152;19.432;2023-03-29T06:45:32;6.50;;;5.90;;
66741;SDS011;53654;54.152;19.432;2023-03-29T06:48:05;6.10;;;5.40;;
66741;SDS011;53654;54.152;19.432;2023-03-29T06:50:37;7.10;;;6.10;;
66741;SDS011;53654;54.152;19.432;2023-03-29T06:53:14;8.40;;;6.90;;
66741;SDS011;53654;54.152;19.432;2023-03-29T06:55:51;10.30;;;6.50;;
66741;SDS011;53654;54.152;19.432;2023-03-29T06:58:48;7.20;;;5.90;;
66741;SDS011;53654;54.152;19.432;2023-03-29T07:01:33;7.50;;;5.30;;
66741;SDS011;53654;54.152;19.432;2023-03-29T07:04:18;7.90;;;5.30;;
66741;SDS011;53654;54.152;19.432;2023-03-29T07:07:05;8.50;;;6.00;;
66741;SDS011;53654;54.152;19.432;2023-03-29T07:09:35;7.90;;;5.80;;
66741;SDS011;53654;54.152;19.432;2023-03-29T07:12:23;8.70;;;5.60;;
66741;SDS011;53654;54.152;19.432;2023-03-29T07:14:51;9.00;;;6.20;;
66741;SDS011;53654;54.152;19.432;2023-03-29T07:17:20;7.90;;;5.80;;
66741;SDS011;53654;54.152;19.432;2023-03-29T07:19:49;10.20;;;7.70;;
66741;SDS011;53654;54.152;19.432;2023-03-29T07:22:44;10.10;;;7.20;;
66741;SDS011;53654;54.152;19.432;2023-03-29T07:25:14;9.30;;;7.70;;
66741;SDS011;53654;54.152;19.432;2023-03-29T07:27:44;8.00;;;6.40;;
66741;SDS011;53654;54.152;19.432;2023-03-29T07:30:14;9.00;;;7.00;;
66741;SDS011;53654;54.152;19.432;2023-03-29T07:32:49;8.30;;;7.40;;
66741;SDS011;53654;54.152;19.432;2023-03-29T07:35:27;8.70;;;6.80;;
66741;SDS011;53654;54.152;19.432;2023-03-29T07:37:55;7.00;;;5.40;;
66741;SDS011;53654;54.152;19.432;2023-03-29T07:40:24;6.70;;;6.00;;
66741;SDS011;53654;54.152;19.432;2023-03-29T07:43:14;6.70;;;5.60;;
66741;SDS011;53654;54.152;19.432;2023-03-29T07:45:42;10.10;;;5.80;;
66741;SDS011;53654;54.152;19.432;2023-03-29T07:48:11;7.50;;;6.20;;
66741;SDS011;53654;54.152;19.432;2023-03-29T07:50:49;6.80;;;5.90;;
66741;SDS011;53654;54.152;19.432;2023-03-29T07:53:20;6.90;;;5.50;;
66741;SDS011;53654;54.152;19.432;2023-03-29T07:55:49;6.50;;;5.40;;
66741;SDS011;53654;54.152;19.432;2023-03-29T07:58:54;6.40;;;5.20;;
66741;SDS011;53654;54.152;19.432;2023-03-29T08:01:22;6.30;;;5.00;;
66741;SDS011;53654;54.152;19.432;2023-03-29T08:04:29;6.60;;;4.70;;
66741;SDS011;53654;54.152;19.432;2023-03-29T08:07:27;6.40;;;4.80;;
66741;SDS011;53654;54.152;19.432;2023-03-29T08:10:15;6.50;;;4.70;;
66741;SDS011;53654;54.152;19.432;2023-03-29T08:12:57;8.80;;;5.00;;
66741;SDS011;53654;54.152;19.432;2023-03-29T08:15:36;6.10;;;4.80;;
66741;SDS011;53654;54.152;19.432;2023-03-29T08:18:09;6.00;;;4.80;;
66741;SDS011;53654;54.152;19.432;2023-03-29T08:20:37;6.20;;;4.80;;
66741;SDS011;53654;54.152;19.432;2023-03-29T08:23:05;5.00;;;4.50;;
66741;SDS011;53654;54.152;19.432;2023-03-29T08:25:54;6.00;;;4.50;;
66741;SDS011;53654;54.152;19.432;2023-03-29T08:28:22;6.30;;;3.90;;
66741;SDS011;53654;54.152;19.432;2023-03-29T08:30:51;4.10;;;3.70;;
66741;SDS011;53654;54.152;19.432;2023-03-29T08:33:21;4.00;;;3.50;;
66741;SDS011;53654;54.152;19.432;2023-03-29T08:35:57;4.70;;;3.60;;
66741;SDS011;53654;54.152;19.432;2023-03-29T08:38:29;5.90;;;3.60;;
66741;SDS011;53654;54.152;19.432;2023-03-29T08:40:57;5.00;;;3.80;;
66741;SDS011;53654;54.152;19.432;2023-03-29T08:49:41;4.00;;;3.30;;
66741;SDS011;53654;54.152;19.432;2023-03-29T08:52:16;4.80;;;3.70;;
66741;SDS011;53654;54.152;19.432;2023-03-29T08:54:50;5.30;;;2.90;;
66741;SDS011;53654;54.152;19.432;2023-03-29T08:57:29;4.60;;;3.00;;
66741;SDS011;53654;54.152;19.432;2023-03-29T09:00:07;3.00;;;2.50;;
66741;SDS011;53654;54.152;19.432;2023-03-29T09:02:49;3.80;;;2.60;;
66741;SDS011;53654;54.152;19.432;2023-03-29T09:05:25;3.10;;;2.40;;
66741;SDS011;53654;54.152;19.432;2023-03-29T09:08:12;3.00;;;2.50;;
66741;SDS011;53654;54.152;19.432;2023-03-29T09:19:15;2.20;;;1.90;;
66741;SDS011;53654;54.152;19.432;2023-03-29T09:21:50;2.80;;;1.80;;
66741;SDS011;53654;54.152;19.432;2023-03-29T09:27:19;2.20;;;1.90;;
66741;SDS011;53654;54.152;19.432;2023-03-29T09:33:08;3.10;;;2.10;;
66741;SDS011;53654;54.152;19.432;2023-03-29T09:36:03;3.20;;;2.00;;
66741;SDS011;53654;54.152;19.432;2023-03-29T09:38:36;3.00;;;2.00;;
66741;SDS011;53654;54.152;19.432;2023-03-29T09:44:09;3.00;;;2.10;;
66741;SDS011;53654;54.152;19.432;2023-03-29T09:49:48;2.50;;;2.10;;
66741;SDS011;53654;54.152;19.432;2023-03-29T09:52:23;2.80;;;2.00;;
66741;SDS011;53654;54.152;19.432;2023-03-29T09:55:02;3.10;;;2.80;;
66741;SDS011;53654;54.152;19.432;2023-03-29T09:57:50;2.90;;;2.50;;
66741;SDS011;53654;54.152;19.432;2023-03-29T10:00:18;3.10;;;2.40;;
66741;SDS011;53654;54.152;19.432;2023-03-29T10:02:54;2.30;;;2.10;;
66741;SDS011;53654;54.152;19.432;2023-03-29T10:05:34;3.00;;;2.40;;
66741;SDS011;53654;54.152;19.432;2023-03-29T10:08:16;4.30;;;3.60;;
66741;SDS011;53654;54.152;19.432;2023-03-29T10:10:50;4.00;;;2.90;;
66741;SDS011;53654;54.152;19.432;2023-03-29T10:13:24;4.50;;;2.60;;
66741;SDS011;53654;54.152;19.432;2023-03-29T10:15:56;2.70;;;2.20;;
66741;SDS011;53654;54.152;19.432;2023-03-29T10:18:29;3.40;;;2.10;;
66741;SDS011;53654;54.152;19.432;2023-03-29T10:20:58;2.30;;;2.10;;
66741;SDS011;53654;54.152;19.432;2023-03-29T10:23:33;2.40;;;2.20;;
66741;SDS011;53654;54.152;19.432;2023-03-29T10:26:04;2.90;;;2.30;;
66741;SDS011;53654;54.152;19.432;2023-03-29T10:28:35;3.10;;;2.20;;
66741;SDS011;53654;54.152;19.432;2023-03-29T10:31:05;3.00;;;2.30;;
66741;SDS011;53654;54.152;19.432;2023-03-29T10:33:34;3.00;;;2.10;;
66741;SDS011;53654;54.152;19.432;2023-03-29T10:36:03;2.90;;;2.50;;
66741;SDS011;53654;54.152;19.432;2023-03-29T10:38:34;3.40;;;2.30;;
66741;SDS011;53654;54.152;19.432;2023-03-29T10:41:05;3.80;;;2.40;;
66741;SDS011;53654;54.152;19.432;2023-03-29T10:43:38;3.80;;;2.20;;
66741;SDS011;53654;54.152;19.432;2023-03-29T10:46:11;2.20;;;2.00;;
66741;SDS011;53654;54.152;19.432;2023-03-29T10:48:47;2.00;;;1.80;;
66741;SDS011;53654;54.152;19.432;2023-03-29T10:51:18;1.90;;;1.70;;
66741;SDS011;53654;54.152;19.432;2023-03-29T10:53:46;2.30;;;1.90;;
66741;SDS011;53654;54.152;19.432;2023-03-29T11:04:48;2.20;;;2.00;;
66741;SDS011;53654;54.152;19.432;2023-03-29T11:07:30;3.50;;;2.00;;
66741;SDS011;53654;54.152;19.432;2023-03-29T11:21:21;2.60;;;2.20;;
66741;SDS011;53654;54.152;19.432;2023-03-29T11:40:41;2.00;;;1.80;;
66741;SDS011;53654;54.152;19.432;2023-03-29T11:43:37;1.90;;;1.70;;
66741;SDS011;53654;54.152;19.432;2023-03-29T11:46:12;2.30;;;1.90;;
66741;SDS011;53654;54.152;19.432;2023-03-29T11:49:21;2.20;;;1.90;;
66741;SDS011;53654;54.152;19.432;2023-03-29T11:52:02;2.30;;;2.10;;
66741;SDS011;53654;54.152;19.432;2023-03-29T11:54:41;2.30;;;2.10;;
66741;SDS011;53654;54.152;19.432;2023-03-29T12:06:11;3.10;;;2.60;;
66741;SDS011;53654;54.152;19.432;2023-03-29T12:08:43;3.60;;;2.70;;
66741;SDS011;53654;54.152;19.432;2023-03-29T12:13:50;4.40;;;3.00;;
66741;SDS011;53654;54.152;19.432;2023-03-29T12:16:26;2.90;;;2.70;;
66741;SDS011;53654;54.152;19.432;2023-03-29T12:18:57;3.70;;;3.30;;
66741;SDS011;53654;54.152;19.432;2023-03-29T12:21:29;3.80;;;3.20;;
66741;SDS011;53654;54.152;19.432;2023-03-29T12:24:01;4.00;;;3.10;;
66741;SDS011;53654;54.152;19.432;2023-03-29T12:29:52;3.40;;;3.10;;
66741;SDS011;53654;54.152;19.432;2023-03-29T12:39:45;3.70;;;3.40;;
66741;SDS011;53654;54.152;19.432;2023-03-29T12:42:32;4.40;;;3.60;;
66741;SDS011;53654;54.152;19.432;2023-03-29T12:45:03;11.90;;;3.70;;
66741;SDS011;53654;54.152;19.432;2023-03-29T12:47:35;3.10;;;2.80;;
66741;SDS011;53654;54.152;19.432;2023-03-29T12:50:26;4.60;;;3.10;;
66741;SDS011;53654;54.152;19.432;2023-03-29T12:53:16;3.20;;;2.90;;
66741;SDS011;53654;54.152;19.432;2023-03-29T12:55:46;4.50;;;2.90;;
66741;SDS011;53654;54.152;19.432;2023-03-29T13:01:08;3.10;;;2.80;;
66741;SDS011;53654;54.152;19.432;2023-03-29T13:03:50;3.10;;;2.80;;
66741;SDS011;53654;54.152;19.432;2023-03-29T13:06:27;3.90;;;2.90;;
66741;SDS011;53654;54.152;19.432;2023-03-29T13:09:18;3.60;;;2.90;;
66741;SDS011;53654;54.152;19.432;2023-03-29T13:11:52;4.30;;;2.90;;
66741;SDS011;53654;54.152;19.432;2023-03-29T13:14:26;3.40;;;3.10;;
66741;SDS011;53654;54.152;19.432;2023-03-29T13:17:02;4.10;;;3.30;;
66741;SDS011;53654;54.152;19.432;2023-03-29T13:19:50;4.00;;;3.60;;
66741;SDS011;53654;54.152;19.432;2023-03-29T13:39:00;6.40;;;3.60;;
66741;SDS011;53654;54.152;19.432;2023-03-29T13:46:59;4.50;;;3.20;;
66741;SDS011;53654;54.152;19.432;2023-03-29T13:49:30;4.50;;;3.20;;
66741;SDS011;53654;54.152;19.432;2023-03-29T13:52:03;3.50;;;3.00;;
66741;SDS011;53654;54.152;19.432;2023-03-29T13:55:03;4.90;;;3.20;;
66741;SDS011;53654;54.152;19.432;2023-03-29T13:57:42;3.70;;;2.80;;
66741;SDS011;53654;54.152;19.432;2023-03-29T14:00:27;4.10;;;2.90;;
66741;SDS011;53654;54.152;19.432;2023-03-29T14:02:59;3.30;;;3.00;;
66741;SDS011;53654;54.152;19.432;2023-03-29T14:05:31;4.20;;;3.10;;
66741;SDS011;53654;54.152;19.432;2023-03-29T14:08:20;4.10;;;3.40;;
66741;SDS011;53654;54.152;19.432;2023-03-29T14:10:53;7.30;;;3.80;;
66741;SDS011;53654;54.152;19.432;2023-03-29T14:13:22;3.90;;;3.50;;
66741;SDS011;53654;54.152;19.432;2023-03-29T14:15:53;6.10;;;4.20;;
66741;SDS011;53654;54.152;19.432;2023-03-29T14:18:27;4.90;;;3.60;;
66741;SDS011;53654;54.152;19.432;2023-03-29T14:21:01;3.80;;;3.20;;
66741;SDS011;53654;54.152;19.432;2023-03-29T14:23:36;4.00;;;3.40;;
66741;SDS011;53654;54.152;19.432;2023-03-29T14:26:09;4.30;;;3.80;;
66741;SDS011;53654;54.152;19.432;2023-03-29T14:28:45;4.90;;;3.60;;
66741;SDS011;53654;54.152;19.432;2023-03-29T14:31:25;5.90;;;5.00;;
66741;SDS011;53654;54.152;19.432;2023-03-29T14:33:58;4.90;;;3.90;;
66741;SDS011;53654;54.152;19.432;2023-03-29T14:36:28;5.00;;;4.10;;
66741;SDS011;53654;54.152;19.432;2023-03-29T14:39:20;7.20;;;3.90;;
66741;SDS011;53654;54.152;19.432;2023-03-29T14:41:49;4.60;;;3.70;;
66741;SDS011;53654;54.152;19.432;2023-03-29T14:44:20;4.80;;;3.80;;
66741;SDS011;53654;54.152;19.432;2023-03-29T14:46:50;5.20;;;3.40;;
66741;SDS011;53654;54.152;19.432;2023-03-29T14:49:18;6.00;;;4.10;;
66741;SDS011;53654;54.152;19.432;2023-03-29T14:51:48;6.10;;;4.00;;
66741;SDS011;53654;54.152;19.432;2023-03-29T14:54:24;4.20;;;3.80;;
66741;SDS011;53654;54.152;19.432;2023-03-29T14:56:54;6.50;;;4.50;;
66741;SDS011;53654;54.152;19.432;2023-03-29T15:02:03;5.50;;;4.30;;
66741;SDS011;53654;54.152;19.432;2023-03-29T15:05:04;6.50;;;4.60;;
66741;SDS011;53654;54.152;19.432;2023-03-29T15:07:34;6.00;;;4.60;;
66741;SDS011;53654;54.152;19.432;2023-03-29T15:10:06;6.60;;;4.40;;
66741;SDS011;53654;54.152;19.432;2023-03-29T15:12:41;5.10;;;4.60;;
66741;SDS011;53654;54.152;19.432;2023-03-29T15:15:10;6.80;;;5.20;;
66741;SDS011;53654;54.152;19.432;2023-03-29T15:17:40;6.60;;;4.30;;
66741;SDS011;53654;54.152;19.432;2023-03-29T15:20:30;6.70;;;4.70;;
66741;SDS011;53654;54.152;19.432;2023-03-29T15:23:02;4.80;;;4.20;;
66741;SDS011;53654;54.152;19.432;2023-03-29T15:25:36;6.30;;;5.00;;
66741;SDS011;53654;54.152;19.432;2023-03-29T15:28:21;6.10;;;4.80;;
66741;SDS011;53654;54.152;19.432;2023-03-29T15:31:01;5.10;;;4.30;;
66741;SDS011;53654;54.152;19.432;2023-03-29T15:33:35;4.80;;;4.00;;
66741;SDS011;53654;54.152;19.432;2023-03-29T15:36:05;5.90;;;4.90;;
66741;SDS011;53654;54.152;19.432;2023-03-29T15:38:35;5.90;;;5.10;;
66741;SDS011;53654;54.152;19.432;2023-03-29T15:41:11;7.30;;;5.20;;
66741;SDS011;53654;54.152;19.432;2023-03-29T15:43:41;6.80;;;5.30;;
66741;SDS011;53654;54.152;19.432;2023-03-29T15:46:12;6.40;;;5.00;;
66741;SDS011;53654;54.152;19.432;2023-03-29T15:48:40;5.00;;;4.50;;
66741;SDS011;53654;54.152;19.432;2023-03-29T15:51:09;6.00;;;4.60;;
66741;SDS011;53654;54.152;19.432;2023-03-29T15:53:39;6.90;;;4.80;;
66741;SDS011;53654;54.152;19.432;2023-03-29T15:56:07;5.80;;;4.50;;
66741;SDS011;53654;54.152;19.432;2023-03-29T15:58:38;7.20;;;4.50;;
66741;SDS011;53654;54.152;19.432;2023-03-29T16:03:45;7.00;;;4.50;;
66741;SDS011;53654;54.152;19.432;2023-03-29T16:06:15;7.80;;;4.90;;
66741;SDS011;53654;54.152;19.432;2023-03-29T16:08:48;8.00;;;5.20;;
66741;SDS011;53654;54.152;19.432;2023-03-29T16:11:17;6.80;;;4.70;;
66741;SDS011;53654;54.152;19.432;2023-03-29T16:13:45;6.10;;;4.70;;
66741;SDS011;53654;54.152;19.432;2023-03-29T16:16:13;8.50;;;5.90;;
66741;SDS011;53654;54.152;19.432;2023-03-29T16:18:41;8.60;;;6.60;;
66741;SDS011;53654;54.152;19.432;2023-03-29T16:21:11;7.50;;;6.10;;
66741;SDS011;53654;54.152;19.432;2023-03-29T16:23:41;9.20;;;6.80;;
66741;SDS011;53654;54.152;19.432;2023-03-29T16:26:10;9.80;;;8.10;;
66741;SDS011;53654;54.152;19.432;2023-03-29T16:28:42;9.10;;;7.80;;
66741;SDS011;53654;54.152;19.432;2023-03-29T16:31:11;8.90;;;7.90;;
66741;SDS011;53654;54.152;19.432;2023-03-29T16:33:40;8.80;;;7.60;;
66741;SDS011;53654;54.152;19.432;2023-03-29T16:36:08;6.70;;;5.70;;
66741;SDS011;53654;54.152;19.432;2023-03-29T16:38:37;7.90;;;6.20;;
66741;SDS011;53654;54.152;19.432;2023-03-29T16:41:05;8.20;;;5.70;;
66741;SDS011;53654;54.152;19.432;2023-03-29T16:43:34;6.30;;;5.00;;
66741;SDS011;53654;54.152;19.432;2023-03-29T16:46:05;6.90;;;6.20;;
66741;SDS011;53654;54.152;19.432;2023-03-29T16:48:35;7.30;;;6.40;;
66741;SDS011;53654;54.152;19.432;2023-03-29T16:51:04;8.70;;;6.70;;
66741;SDS011;53654;54.152;19.432;2023-03-29T16:53:33;8.20;;;7.40;;
66741;SDS011;53654;54.152;19.432;2023-03-29T16:56:02;6.80;;;6.10;;
66741;SDS011;53654;54.152;19.432;2023-03-29T16:58:32;5.90;;;5.30;;
66741;SDS011;53654;54.152;19.432;2023-03-29T17:01:07;6.40;;;5.70;;
66741;SDS011;53654;54.152;19.432;2023-03-29T17:03:40;7.10;;;6.20;;
66741;SDS011;53654;54.152;19.432;2023-03-29T17:06:09;8.30;;;6.90;;
66741;SDS011;53654;54.152;19.432;2023-03-29T17:08:38;9.50;;;7.40;;
66741;SDS011;53654;54.152;19.432;2023-03-29T17:11:06;8.10;;;6.80;;
66741;SDS011;53654;54.152;19.432;2023-03-29T17:13:34;9.10;;;7.20;;
66741;SDS011;53654;54.152;19.432;2023-03-29T17:16:04;8.40;;;6.70;;